Time;durP1;ratioP1;P1;durP2;ratioP2;P2;SDS_P1;SDS_P2;PMS_P1;PMS_P2;Temp;Humidity;BMP_temperature;BMP_pressure;BME280_temperature;BME280_humidity;BME280_pressure;Samples;Min_cycle;Max_cycle;Signal;HPM_P1;HPM_P2
2021/05/16 00:00:24;;;;;;;1.15;1.08;;;;;;;11.86;97.21;97016.22;5031141;28;20025;-75
2021/05/16 00:02:51;;;;;;;2.38;1.08;;;;;;;11.91;97.79;97007.00;5031092;28;20041;-74
2021/05/16 00:05:20;;;;;;;4.03;1.30;;;;;;;11.93;98.19;97004.75;5030672;28;20042;-74
2021/05/16 00:07:46;;;;;;;1.48;1.38;;;;;;;11.94;98.20;96996.19;5030870;28;20037;-74
2021/05/16 00:10:13;;;;;;;1.50;1.23;;;;;;;11.92;98.14;97003.13;5031113;28;20025;-75
2021/05/16 00:12:39;;;;;;;2.10;1.08;;;;;;;12.02;98.61;97005.53;5031009;28;20091;-75
2021/05/16 00:15:08;;;;;;;1.40;1.30;;;;;;;12.02;99.18;97002.78;5031554;28;20406;-75
2021/05/16 00:17:34;;;;;;;2.53;1.38;;;;;;;11.93;98.21;96999.28;5013281;28;20029;-76
2021/05/16 00:20:00;;;;;;;1.50;1.13;;;;;;;11.93;97.33;97000.09;5024633;28;20032;-76
2021/05/16 00:22:27;;;;;;;2.80;0.88;;;;;;;11.96;97.89;97004.09;5016645;28;20389;-76
2021/05/16 00:24:52;;;;;;;1.35;1.00;;;;;;;11.99;98.29;97009.72;5025047;28;20021;-75
2021/05/16 00:27:17;;;;;;;2.05;1.08;;;;;;;12.08;97.87;97001.47;5013027;28;20556;-75
2021/05/16 00:29:43;;;;;;;1.35;1.00;;;;;;;12.05;97.50;96996.66;5031394;28;20040;-74
2021/05/16 00:32:08;;;;;;;1.65;0.73;;;;;;;12.04;97.44;96998.56;5031660;28;20544;-75
2021/05/16 00:34:34;;;;;;;1.00;0.90;;;;;;;11.99;97.36;96992.47;5031614;28;20120;-75
2021/05/16 00:36:59;;;;;;;3.50;0.82;;;;;;;12.04;97.04;97000.50;5031203;28;20393;-75
2021/05/16 00:39:25;;;;;;;0.88;0.80;;;;;;;12.00;97.03;97010.50;5031089;28;20017;-76
2021/05/16 00:41:51;;;;;;;1.80;0.98;;;;;;;12.02;97.61;96992.63;5031204;28;20033;-76
2021/05/16 00:44:19;;;;;;;1.25;1.00;;;;;;;11.93;96.40;96999.28;5031014;28;20013;-76
2021/05/16 00:46:44;;;;;;;1.15;0.65;;;;;;;11.93;97.15;96993.78;5030935;28;20057;-76
2021/05/16 00:49:11;;;;;;;1.33;0.85;;;;;;;11.89;96.77;97001.03;5030991;28;20505;-76
2021/05/16 00:51:37;;;;;;;1.10;1.00;;;;;;;11.76;97.00;96997.38;5031256;28;20024;-76
2021/05/16 00:54:05;;;;;;;3.03;0.98;;;;;;;11.74;98.54;96997.72;5013097;28;20045;-77
2021/05/16 00:56:31;;;;;;;1.25;0.88;;;;;;;11.73;97.86;96998.84;5027547;28;20029;-77
2021/05/16 00:58:57;;;;;;;0.77;0.77;;;;;;;11.71;98.82;97003.03;5029894;28;20026;-76
2021/05/16 01:01:24;;;;;;;0.50;0.50;;;;;;;11.68;98.88;97003.66;5032116;28;20083;-76
2021/05/16 01:03:49;;;;;;;1.73;0.98;;;;;;;11.67;97.27;97002.84;5030365;28;20175;-76
2021/05/16 01:06:15;;;;;;;0.75;0.63;;;;;;;11.62;97.18;97005.75;5030762;28;20033;-75
2021/05/16 01:08:40;;;;;;;2.55;1.23;;;;;;;11.61;96.92;97006.91;5031202;28;20117;-75
2021/05/16 01:11:05;;;;;;;2.13;1.92;;;;;;;11.58;97.22;97002.06;5022554;28;20022;-75
2021/05/16 01:13:31;;;;;;;2.50;1.33;;;;;;;11.57;97.42;97007.84;5012873;28;20059;-75
2021/05/16 01:15:56;;;;;;;1.73;0.80;;;;;;;11.54;96.87;96995.63;5017329;28;20584;-76
2021/05/16 01:18:22;;;;;;;0.82;0.82;;;;;;;11.57;97.84;97011.41;5009603;28;20112;-75
2021/05/16 01:20:50;;;;;;;2.45;1.00;;;;;;;11.46;97.53;96999.19;5009865;28;20030;-75
2021/05/16 01:23:25;;;;;;;1.70;1.00;;;;;;;11.47;98.05;96997.22;5010317;28;20065;-75
2021/05/16 01:25:51;;;;;;;2.17;1.20;;;;;;;11.50;97.96;97000.13;5010588;28;20042;-75
2021/05/16 01:28:19;;;;;;;0.90;0.70;;;;;;;11.43;97.37;97002.59;5010657;28;20076;-75
2021/05/16 01:30:47;;;;;;;0.88;0.80;;;;;;;11.43;97.50;97007.25;5010675;28;20445;-75
2021/05/16 01:33:14;;;;;;;1.20;1.10;;;;;;;11.40;98.19;96992.28;5010508;28;20022;-74
2021/05/16 01:35:40;;;;;;;1.98;1.10;;;;;;;11.32;97.88;96987.59;5012627;28;20034;-75
2021/05/16 01:38:07;;;;;;;7.07;1.27;;;;;;;11.43;99.21;96990.81;5010193;28;20048;-76
2021/05/16 01:40:33;;;;;;;2.38;0.90;;;;;;;11.47;99.25;97003.53;5010628;28;20048;-75
2021/05/16 01:42:59;;;;;;;1.23;0.90;;;;;;;11.50;99.74;96997.38;5011363;28;20049;-75
2021/05/16 01:45:27;;;;;;;2.35;1.27;;;;;;;11.60;100.00;96991.59;5010795;28;20025;-75
2021/05/16 01:47:58;;;;;;;3.83;1.95;;;;;;;11.47;100.00;96992.56;5009851;28;20060;-76
2021/05/16 01:50:27;;;;;;;4.88;1.20;;;;;;;11.47;100.00;96998.03;5010021;28;20093;-76
2021/05/16 01:52:52;;;;;;;0.98;0.90;;;;;;;11.57;100.00;96992.22;5010446;28;20076;-76
2021/05/16 01:55:19;;;;;;;1.60;1.20;;;;;;;11.58;100.00;96998.53;5010122;28;20034;-76
2021/05/16 01:57:46;;;;;;;1.88;0.88;;;;;;;11.49;100.00;97000.47;4992808;28;20390;-76
2021/05/16 02:00:26;;;;;;;2.88;1.10;;;;;;;11.37;100.00;96998.38;4992889;28;20038;-75
2021/05/16 02:02:53;;;;;;;4.85;0.93;;;;;;;11.32;100.00;96995.81;5009934;28;20895;-75
2021/05/16 02:05:19;;;;;;;3.30;1.05;;;;;;;11.30;100.00;96995.34;4991693;28;20029;-74
2021/05/16 02:07:46;;;;;;;1.98;0.93;;;;;;;11.33;100.00;96994.69;5008422;28;20432;-76
2021/05/16 02:10:12;;;;;;;1.73;0.98;;;;;;;11.28;100.00;96992.09;5015542;28;20417;-74
2021/05/16 02:12:37;;;;;;;1.15;1.08;;;;;;;11.26;100.00;96999.84;5033008;28;20483;-75
2021/05/16 02:15:05;;;;;;;1.92;1.23;;;;;;;11.28;100.00;96994.84;5033929;28;20028;-75
2021/05/16 02:17:30;;;;;;;1.98;1.10;;;;;;;11.20;100.00;96998.41;5033545;28;20033;-77
2021/05/16 02:19:56;;;;;;;1.35;0.77;;;;;;;11.36;100.00;97007.72;5033540;28;20490;-75
2021/05/16 02:22:21;;;;;;;1.52;1.02;;;;;;;11.36;100.00;97001.44;5032775;28;20038;-77
2021/05/16 02:24:46;;;;;;;2.97;1.35;;;;;;;11.41;100.00;97006.75;5033000;28;20074;-76
2021/05/16 02:27:12;;;;;;;2.50;1.85;;;;;;;11.47;100.00;97011.72;5033278;28;20060;-76
2021/05/16 02:29:37;;;;;;;1.85;1.13;;;;;;;11.37;100.00;96987.41;5015892;28;20030;-74
2021/05/16 02:32:06;;;;;;;2.10;1.10;;;;;;;11.40;100.00;96996.94;5015609;28;20013;-75
2021/05/16 02:34:32;;;;;;;1.85;1.33;;;;;;;11.40;100.00;96997.75;5015169;28;20056;-75
2021/05/16 02:36:57;;;;;;;1.45;0.98;;;;;;;11.47;100.00;97021.88;5033258;28;20542;-75
2021/05/16 02:39:23;;;;;;;1.45;1.20;;;;;;;11.50;100.00;97018.50;5033159;28;20029;-76
2021/05/16 02:41:48;;;;;;;1.52;1.27;;;;;;;11.47;100.00;97025.44;5033119;28;20029;-75
2021/05/16 02:44:14;;;;;;;3.55;1.40;;;;;;;11.45;100.00;97022.22;5015613;28;20063;-76
2021/05/16 02:46:39;;;;;;;1.40;1.30;;;;;;;11.51;100.00;97015.44;5032909;28;20029;-74
2021/05/16 02:49:05;;;;;;;2.15;1.20;;;;;;;11.57;100.00;97022.34;5015286;28;20115;-75
2021/05/16 02:51:30;;;;;;;3.67;1.63;;;;;;;11.53;100.00;97024.13;5003444;28;20038;-75
2021/05/16 02:53:56;;;;;;;1.88;1.58;;;;;;;11.51;100.00;97026.41;5012317;28;20394;-76
2021/05/16 02:56:21;;;;;;;2.10;1.08;;;;;;;11.55;100.00;97021.88;5012860;28;20030;-74
2021/05/16 02:58:47;;;;;;;1.70;1.13;;;;;;;11.63;100.00;97032.00;4995146;28;20026;-75
2021/05/16 03:01:12;;;;;;;2.60;1.40;;;;;;;11.71;100.00;97030.44;5012901;28;20030;-75
2021/05/16 03:03:39;;;;;;;4.72;1.52;;;;;;;11.81;100.00;97039.09;5013146;28;20028;-75
2021/05/16 03:06:05;;;;;;;4.15;1.30;;;;;;;11.77;100.00;97029.94;5013004;28;20364;-75
2021/05/16 03:08:31;;;;;;;1.30;1.20;;;;;;;11.80;100.00;97028.47;5013013;28;20470;-75
2021/05/16 03:10:57;;;;;;;8.00;1.45;;;;;;;11.79;100.00;97033.16;5012485;28;20037;-75
2021/05/16 03:13:23;;;;;;;1.80;1.40;;;;;;;11.84;100.00;97034.91;4994597;28;20048;-75
2021/05/16 03:15:49;;;;;;;1.27;1.08;;;;;;;11.80;99.79;97033.97;5018492;28;20136;-74
2021/05/16 03:18:14;;;;;;;3.97;1.23;;;;;;;11.82;100.00;97040.72;5032648;28;20025;-75
2021/05/16 03:20:40;;;;;;;1.65;1.40;;;;;;;11.84;100.00;97039.59;5018008;28;20038;-75
2021/05/16 03:23:06;;;;;;;1.67;1.20;;;;;;;11.79;100.00;97040.56;5011613;28;20080;-75
2021/05/16 03:25:34;;;;;;;6.20;1.33;;;;;;;11.72;100.00;97035.56;5012409;28;20390;-75
2021/05/16 03:28:00;;;;;;;1.42;1.30;;;;;;;11.78;100.00;97034.28;5012826;28;20029;-75
2021/05/16 03:30:25;;;;;;;1.98;1.25;;;;;;;11.95;100.00;97040.84;5012144;28;20030;-74
2021/05/16 03:32:51;;;;;;;1.52;1.40;;;;;;;11.93;100.00;97029.41;5012806;28;20032;-75
2021/05/16 03:35:16;;;;;;;1.95;1.13;;;;;;;11.76;99.97;97033.81;5021937;28;20025;-75
2021/05/16 03:37:42;;;;;;;1.83;1.45;;;;;;;11.75;100.00;97026.69;5022048;28;20070;-75
2021/05/16 03:40:08;;;;;;;1.90;1.30;;;;;;;11.89;100.00;97033.94;5013435;28;20085;-75
2021/05/16 03:42:34;;;;;;;2.35;1.50;;;;;;;11.83;100.00;97047.00;5012514;28;20110;-75
2021/05/16 03:45:01;;;;;;;2.05;1.20;;;;;;;11.78;100.00;97037.00;4995096;28;20037;-74
2021/05/16 03:47:26;;;;;;;1.88;1.30;;;;;;;11.78;100.00;97031.53;5012293;28;20026;-75
2021/05/16 03:49:52;;;;;;;1.77;1.48;;;;;;;11.82;100.00;97043.47;5012314;28;20096;-75
2021/05/16 03:52:21;;;;;;;1.83;1.65;;;;;;;11.70;100.00;97035.09;5012103;28;20026;-74
2021/05/16 03:54:50;;;;;;;2.50;1.40;;;;;;;11.80;100.00;97043.00;5012460;28;20449;-74
2021/05/16 03:57:17;;;;;;;1.65;1.55;;;;;;;11.84;100.00;97039.59;5012583;28;20034;-74
2021/05/16 03:59:43;;;;;;;3.38;2.85;;;;;;;11.74;99.94;97041.56;5012238;28;20515;-74
2021/05/16 04:02:09;;;;;;;1.88;1.33;;;;;;;11.89;100.00;97047.63;5028344;28;20517;-75
2021/05/16 04:04:35;;;;;;;2.33;1.33;;;;;;;11.91;99.70;97046.16;5031364;28;20029;-75
2021/05/16 04:07:00;;;;;;;2.63;1.50;;;;;;;11.94;98.32;97039.22;5031632;28;20091;-75
2021/05/16 04:09:26;;;;;;;2.33;1.95;;;;;;;11.89;100.00;97047.63;5013757;28;20072;-75
2021/05/16 04:11:51;;;;;;;2.75;1.67;;;;;;;11.90;100.00;97057.47;5031009;28;20022;-75
2021/05/16 04:14:17;;;;;;;6.57;2.15;;;;;;;11.93;100.00;97067.78;5030888;28;20096;-74
2021/05/16 04:16:43;;;;;;;1.67;1.58;;;;;;;11.90;100.00;97061.03;5031903;28;20076;-74
2021/05/16 04:19:08;;;;;;;3.28;1.33;;;;;;;11.78;100.00;97053.44;5031920;28;20067;-76
2021/05/16 04:21:34;;;;;;;3.10;2.28;;;;;;;11.78;100.00;97067.16;5010449;28;20022;-76
2021/05/16 04:23:59;;;;;;;2.33;1.98;;;;;;;11.71;100.00;97069.59;5010454;28;20463;-75
2021/05/16 04:26:25;;;;;;;2.80;2.08;;;;;;;11.79;100.00;97071.50;5011331;28;20037;-75
2021/05/16 04:28:50;;;;;;;3.65;2.30;;;;;;;11.71;100.00;97077.81;5010908;28;20617;-77
2021/05/16 04:31:16;;;;;;;4.18;1.77;;;;;;;11.72;100.00;97070.38;4994937;28;20022;-75
2021/05/16 04:33:41;;;;;;;2.92;2.25;;;;;;;11.71;100.00;97080.56;5011489;28;20033;-76
2021/05/16 04:36:06;;;;;;;2.03;1.83;;;;;;;11.65;100.00;97070.84;5030836;28;20060;-75
2021/05/16 04:38:32;;;;;;;4.70;2.55;;;;;;;11.71;100.00;97079.75;5030944;28;20028;-75
2021/05/16 04:40:57;;;;;;;2.15;1.85;;;;;;;11.61;100.00;97080.84;5013585;28;20033;-75
2021/05/16 04:43:23;;;;;;;3.13;1.92;;;;;;;11.64;100.00;97071.97;4992884;28;20030;-75
2021/05/16 04:45:48;;;;;;;3.50;2.55;;;;;;;11.77;100.00;97079.25;5011563;28;20026;-75
2021/05/16 04:48:14;;;;;;;2.55;1.98;;;;;;;11.81;100.00;97093.91;5010263;28;20029;-76
2021/05/16 04:50:39;;;;;;;3.60;1.77;;;;;;;11.80;100.00;97089.56;5010221;28;20014;-75
2021/05/16 04:53:04;;;;;;;2.42;1.85;;;;;;;11.73;100.00;97089.25;5011304;28;20026;-75
2021/05/16 04:55:31;;;;;;;2.50;2.03;;;;;;;11.76;100.00;97088.59;5010861;28;20029;-75
2021/05/16 04:57:57;;;;;;;5.55;2.35;;;;;;;11.72;100.00;97087.63;4993081;28;20117;-75
2021/05/16 05:00:23;;;;;;;3.25;2.35;;;;;;;11.78;100.00;97085.50;5011111;28;20397;-75
2021/05/16 05:02:48;;;;;;;2.25;1.88;;;;;;;11.75;100.00;97081.50;5010656;28;20048;-76
2021/05/16 05:05:15;;;;;;;3.55;2.72;;;;;;;11.66;100.00;97088.88;5010663;28;20029;-75
2021/05/16 05:07:41;;;;;;;3.03;2.40;;;;;;;11.74;100.00;97088.13;5010804;28;20029;-75
2021/05/16 05:10:09;;;;;;;1.90;1.75;;;;;;;11.81;100.00;97090.34;5010754;28;20109;-76
2021/05/16 05:12:35;;;;;;;3.95;2.58;;;;;;;11.84;100.00;97094.41;5010776;28;20069;-75
2021/05/16 05:15:01;;;;;;;3.40;2.25;;;;;;;11.88;100.00;97101.63;4993277;28;20096;-76
2021/05/16 05:17:26;;;;;;;2.30;2.03;;;;;;;11.94;100.00;97110.47;5017854;28;20021;-75
2021/05/16 05:19:51;;;;;;;7.10;2.40;;;;;;;11.86;100.00;97105.81;5012538;28;20401;-75
2021/05/16 05:22:17;;;;;;;4.72;2.40;;;;;;;11.89;100.00;97102.44;5030290;28;20037;-75
2021/05/16 05:24:42;;;;;;;3.92;1.73;;;;;;;11.97;100.00;97109.84;5030263;28;20025;-75
2021/05/16 05:27:08;;;;;;;2.72;2.53;;;;;;;12.03;100.00;97103.06;5030253;28;20032;-75
2021/05/16 05:29:33;;;;;;;2.35;2.15;;;;;;;12.05;100.00;97098.06;5012278;28;20108;-75
2021/05/16 05:31:59;;;;;;;4.30;1.92;;;;;;;12.13;100.00;97114.47;5030234;28;20052;-76
2021/05/16 05:34:25;;;;;;;2.75;1.70;;;;;;;12.19;100.00;97112.38;5030245;28;20022;-75
2021/05/16 05:36:52;;;;;;;4.30;1.95;;;;;;;12.24;100.00;97115.75;5030368;28;20065;-75
2021/05/16 05:39:19;;;;;;;3.00;2.15;;;;;;;12.29;100.00;97117.50;5030061;28;20024;-75
2021/05/16 05:41:45;;;;;;;2.33;2.03;;;;;;;12.40;100.00;97124.28;5030152;28;20125;-76
2021/05/16 05:44:11;;;;;;;3.88;2.00;;;;;;;12.47;99.30;97124.53;5012939;28;20036;-75
2021/05/16 05:46:37;;;;;;;3.45;2.25;;;;;;;12.40;99.14;97135.25;5034557;28;20501;-84
2021/05/16 05:49:03;;;;;;;2.38;1.85;;;;;;;12.40;99.08;97137.16;5017506;28;20026;-82
2021/05/16 05:51:28;;;;;;;4.15;2.47;;;;;;;12.43;99.42;97133.78;5018309;28;20037;-83
2021/05/16 05:53:53;;;;;;;5.15;2.38;;;;;;;12.40;99.77;97129.75;5024344;28;20502;-87
2021/05/16 05:56:19;;;;;;;3.35;2.28;;;;;;;12.40;99.33;97139.91;5017856;28;20049;-87
2021/05/16 05:58:44;;;;;;;2.65;2.20;;;;;;;12.45;99.03;97147.97;5018859;28;20026;-84
2021/05/16 06:01:10;;;;;;;6.10;3.42;;;;;;;12.49;98.53;97152.47;5022510;28;20030;-85
2021/05/16 06:03:35;;;;;;;5.57;3.42;;;;;;;12.52;98.14;97153.75;5005155;28;20025;-88
2021/05/16 06:06:01;;;;;;;8.23;3.97;;;;;;;12.48;99.11;97156.34;5022247;28;20137;-86
2021/05/16 06:08:26;;;;;;;3.50;3.20;;;;;;;12.50;97.61;97151.31;5020012;28;20034;-87
2021/05/16 06:10:51;;;;;;;3.80;3.40;;;;;;;12.41;98.43;97158.78;5019039;28;20021;-88
2021/05/16 06:13:17;;;;;;;4.88;3.78;;;;;;;12.51;98.09;97163.91;5020602;28;20053;-85
2021/05/16 06:15:43;;;;;;;11.32;7.78;;;;;;;12.46;97.60;97168.78;5030663;28;20025;-85
2021/05/16 06:18:08;;;;;;;10.40;5.63;;;;;;;12.47;98.04;97173.91;5019525;28;20026;-88
2021/05/16 06:20:34;;;;;;;12.60;10.88;;;;;;;12.72;96.86;97181.28;5019235;28;20037;-86
2021/05/16 06:23:02;;;;;;;23.17;15.93;;;;;;;13.02;96.63;97184.88;5018282;28;20036;-84
2021/05/16 06:25:28;;;;;;;11.10;6.40;;;;;;;13.26;94.44;97184.31;5017885;28;20089;-87
2021/05/16 06:27:56;;;;;;;15.27;8.93;;;;;;;13.65;93.86;97185.84;5018130;28;20065;-84
2021/05/16 06:30:24;;;;;;;12.38;9.05;;;;;;;13.81;92.83;97187.66;5016226;28;20026;-86
2021/05/16 06:32:50;;;;;;;80.50;59.35;;;;;;;13.70;91.76;97194.69;5017330;28;20033;-84
2021/05/16 06:35:15;;;;;;;5.03;4.05;;;;;;;13.97;89.39;97193.34;5016527;28;20018;-84
2021/05/16 06:37:41;;;;;;;6.90;3.47;;;;;;;13.63;89.42;97188.91;5015640;28;20496;-85
2021/05/16 06:40:08;;;;;;;6.22;3.00;;;;;;;13.80;89.21;97188.81;5014963;28;22092;-84
2021/05/16 06:42:34;;;;;;;5.15;2.90;;;;;;;14.19;87.17;97192.22;5015582;28;20482;-87
2021/05/16 06:44:59;;;;;;;3.03;2.75;;;;;;;14.28;86.03;97198.44;4999140;28;20026;-85
2021/05/16 06:47:25;;;;;;;3.92;2.65;;;;;;;14.69;84.43;97198.34;4998445;28;20040;-86
2021/05/16 06:49:53;;;;;;;3.45;2.47;;;;;;;14.52;82.86;97192.25;5017079;28;20021;-85
2021/05/16 06:52:21;;;;;;;3.50;2.30;;;;;;;15.43;81.41;97198.13;5016435;28;20109;-84
2021/05/16 06:54:48;;;;;;;3.08;2.25;;;;;;;16.10;79.09;97199.38;5016943;28;20030;-79
2021/05/16 06:57:15;;;;;;;2.45;1.88;;;;;;;16.23;75.35;97212.00;5012979;28;20030;-81
2021/05/16 06:59:40;;;;;;;9.20;2.10;;;;;;;15.91;76.35;97210.25;4995908;28;20056;-80
2021/05/16 07:02:06;;;;;;;18.17;11.70;;;;;;;15.32;77.54;97188.69;5013815;28;20073;-79
2021/05/16 07:04:32;;;;;;;49.60;36.92;;;;;;;15.25;77.38;97206.94;5014680;28;20029;-78
2021/05/16 07:06:57;;;;;;;1.70;1.60;;;;;;;15.23;78.37;97212.78;5012783;28;20034;-82
2021/05/16 07:09:23;;;;;;;1.50;1.40;;;;;;;15.45;76.52;97203.25;5017509;28;20116;-82
2021/05/16 07:11:48;;;;;;;1.98;1.50;;;;;;;15.94;74.73;97193.00;5022712;28;20493;-83
2021/05/16 07:14:13;;;;;;;4.22;2.33;;;;;;;16.28;73.72;97206.25;5021525;28;20467;-84
2021/05/16 07:16:39;;;;;;;2.50;1.80;;;;;;;15.84;74.36;97202.56;5001768;28;20033;-77
2021/05/16 07:19:04;;;;;;;3.35;1.90;;;;;;;15.58;75.00;97196.63;5021154;28;20506;-80
2021/05/16 07:21:29;;;;;;;2.72;1.77;;;;;;;15.76;75.31;97197.16;5021702;28;20033;-79
2021/05/16 07:23:56;;;;;;;2.25;1.90;;;;;;;15.72;75.63;97201.78;5020350;28;20026;-79
2021/05/16 07:26:21;;;;;;;2.60;1.50;;;;;;;16.08;74.14;97216.31;4997722;28;20422;-80
2021/05/16 07:28:47;;;;;;;1.33;1.23;;;;;;;16.29;72.75;97212.56;5019344;28;20037;-80
2021/05/16 07:31:15;;;;;;;2.63;1.63;;;;;;;16.24;74.19;97197.06;5003016;28;20379;-79
2021/05/16 07:33:40;;;;;;;2.17;1.95;;;;;;;16.67;71.30;97218.41;5002538;28;20037;-79
2021/05/16 07:36:06;;;;;;;1.85;1.48;;;;;;;16.35;73.52;97203.66;5021457;28;20070;-81
2021/05/16 07:38:34;;;;;;;2.67;2.05;;;;;;;16.81;73.46;97216.03;5003740;28;20026;-79
2021/05/16 07:41:00;;;;;;;1.70;1.58;;;;;;;16.44;73.87;97209.88;5018660;28;20034;-79
2021/05/16 07:43:29;;;;;;;2.20;1.80;;;;;;;16.45;73.65;97214.22;5021693;28;20033;-80
2021/05/16 07:45:56;;;;;;;3.20;2.08;;;;;;;16.20;74.92;97214.66;5020357;28;20036;-81
2021/05/16 07:48:28;;;;;;;3.28;2.03;;;;;;;16.18;75.09;97209.50;5021494;28;20052;-79
2021/05/16 07:51:01;;;;;;;2.35;2.00;;;;;;;16.33;74.01;97199.66;5002701;28;20041;-80
2021/05/16 07:53:27;;;;;;;2.25;1.85;;;;;;;16.84;72.44;97209.81;5003559;28;20021;-79
2021/05/16 07:55:53;;;;;;;4.65;2.28;;;;;;;16.99;71.29;97205.44;5020838;28;20029;-82
2021/05/16 07:58:18;;;;;;;1.73;1.40;;;;;;;16.90;71.23;97202.84;5004960;28;20394;-79
2021/05/16 08:00:44;;;;;;;3.25;1.77;;;;;;;16.73;71.99;97207.91;5016885;28;20045;-80
2021/05/16 08:03:10;;;;;;;2.20;2.00;;;;;;;16.59;72.45;97213.84;5020322;28;20041;-79
2021/05/16 08:05:35;;;;;;;3.05;1.75;;;;;;;16.31;73.20;97218.53;5018257;28;20540;-79
2021/05/16 08:08:01;;;;;;;4.18;1.63;;;;;;;16.27;75.31;97214.84;5018461;28;20556;-77
2021/05/16 08:10:27;;;;;;;2.13;1.75;;;;;;;16.26;75.63;97207.72;5002844;28;20021;-79
2021/05/16 08:12:53;;;;;;;2.15;1.38;;;;;;;16.03;74.20;97215.75;5002657;28;20006;-80
2021/05/16 08:15:19;;;;;;;4.45;1.75;;;;;;;15.85;75.60;97197.88;5019511;28;20529;-79
2021/05/16 08:17:45;;;;;;;2.80;1.45;;;;;;;15.72;75.15;97196.28;5016233;28;20017;-76
2021/05/16 08:20:10;;;;;;;4.63;1.55;;;;;;;15.98;76.36;97197.47;5018177;28;20036;-75
2021/05/16 08:22:37;;;;;;;3.30;2.00;;;;;;;16.41;74.22;97190.44;5020447;28;20026;-75
2021/05/16 08:25:08;;;;;;;4.45;1.73;;;;;;;16.29;74.16;97193.25;5024000;28;20482;-75
2021/05/16 08:27:34;;;;;;;3.20;1.40;;;;;;;16.17;74.11;97190.50;4995238;28;20038;-74
2021/05/16 08:30:01;;;;;;;3.40;1.23;;;;;;;16.35;73.58;97202.88;5017149;28;20036;-75
2021/05/16 08:32:26;;;;;;;1.88;0.90;;;;;;;16.52;72.86;97202.56;5022606;28;20056;-74
2021/05/16 08:34:52;;;;;;;5.85;1.60;;;;;;;16.68;71.72;97184.09;5014456;28;20096;-76
2021/05/16 08:37:18;;;;;;;2.20;1.30;;;;;;;17.41;70.15;97195.47;5023320;28;20086;-74
2021/05/16 08:39:44;;;;;;;1.38;0.80;;;;;;;19.59;63.83;97197.53;4983013;28;20044;-75
2021/05/16 08:42:09;;;;;;;2.53;0.90;;;;;;;20.89;56.45;97194.94;4995594;28;20033;-74
2021/05/16 08:44:35;;;;;;;1.83;0.95;;;;;;;22.18;52.79;97188.84;4986299;28;20137;-75
2021/05/16 08:47:02;;;;;;;3.70;0.68;;;;;;;22.89;49.09;97191.97;4994046;28;20041;-74
2021/05/16 08:49:29;;;;;;;1.23;0.68;;;;;;;21.67;53.99;97190.91;4999910;28;20018;-74
2021/05/16 08:51:55;;;;;;;2.80;0.95;;;;;;;22.55;52.41;97183.06;4997194;28;20034;-75
2021/05/16 08:54:24;;;;;;;5.10;1.00;;;;;;;22.99;49.32;97190.41;4993621;28;20402;-75
2021/05/16 08:56:52;;;;;;;3.88;1.08;;;;;;;23.94;46.85;97193.25;5020837;28;20546;-76
2021/05/16 08:59:20;;;;;;;8.52;2.10;;;;;;;24.17;45.07;97199.22;5005247;28;20022;-74
2021/05/16 09:01:47;;;;;;;1.50;0.65;;;;;;;24.98;43.85;97192.53;5000607;28;20461;-73
2021/05/16 09:04:37;;;;;;;0.90;0.50;;;;;;;25.82;41.07;97196.75;4997443;28;20034;-74
2021/05/16 09:07:04;;;;;;;2.90;0.65;;;;;;;25.42;42.05;97206.66;5004412;28;20033;-75
2021/05/16 09:09:41;;;;;;;2.17;1.25;;;;;;;24.23;44.71;97205.19;5019256;28;20517;-73
2021/05/16 09:12:09;;;;;;;0.63;0.60;;;;;;;23.32;46.65;97204.81;5004937;28;20041;-74
2021/05/16 09:14:42;;;;;;;3.10;0.98;;;;;;;22.91;48.39;97197.94;4999639;28;20033;-73
2021/05/16 09:17:39;;;;;;;1.52;0.65;;;;;;;22.21;49.40;97195.66;4998930;28;20439;-76
2021/05/16 09:20:06;;;;;;;5.57;1.13;;;;;;;21.50;51.07;97192.34;4981730;28;20065;-77
2021/05/16 09:22:34;;;;;;;1.42;0.50;;;;;;;21.51;51.83;97204.28;5000339;28;20026;-78
2021/05/16 09:25:25;;;;;;;2.72;0.75;;;;;;;21.30;51.16;97202.13;5003136;28;20029;-79
2021/05/16 09:28:04;;;;;;;1.58;0.88;;;;;;;21.52;51.39;97201.09;4998892;28;20038;-77
2021/05/16 09:30:30;;;;;;;1.45;0.65;;;;;;;21.09;51.85;97205.50;4982833;28;20044;-82
2021/05/16 09:32:57;;;;;;;2.05;0.82;;;;;;;20.27;53.81;97189.03;5000455;28;20038;-82
2021/05/16 09:35:29;;;;;;;2.10;0.70;;;;;;;20.95;52.85;97197.00;5005019;28;20088;-84
2021/05/16 09:38:01;;;;;;;1.33;0.60;;;;;;;22.59;47.80;97195.03;5015591;28;20029;-80
2021/05/16 09:40:29;;;;;;;1.25;0.70;;;;;;;24.39;44.34;97199.97;4999475;28;20079;-77
2021/05/16 09:43:08;;;;;;;4.25;0.93;;;;;;;23.94;44.66;97196.84;5018739;28;20033;-77
2021/05/16 09:45:44;;;;;;;7.45;1.45;;;;;;;22.40;47.55;97187.78;5000291;28;20029;-78
2021/05/16 09:48:42;;;;;;;;;;;;;;;22.10;49.49;97181.66;5015719;28;20034;-75
2021/05/16 09:51:24;;;;;;;1.83;0.90;;;;;;;23.43;45.39;97183.28;5003689;28;19944;-76
2021/05/16 09:54:00;;;;;;;3.05;0.88;;;;;;;23.25;45.89;97182.47;5019104;28;20029;-76
2021/05/16 09:56:29;;;;;;;3.78;1.73;;;;;;;25.72;42.33;97192.03;5014019;28;20422;-75
2021/05/16 09:59:00;;;;;;;5.25;0.90;;;;;;;25.02;42.19;97190.53;4995505;28;20538;-73
2021/05/16 10:01:28;;;;;;;1.10;0.95;;;;;;;24.06;44.54;97176.06;5016449;28;20158;-74
2021/05/16 10:03:54;;;;;;;0.77;0.60;;;;;;;25.15;42.58;97171.25;5025394;28;20386;-74
2021/05/16 10:06:21;;;;;;;3.22;0.70;;;;;;;25.62;40.62;97178.13;4994647;28;20033;-74
2021/05/16 10:08:48;;;;;;;1.27;0.50;;;;;;;25.35;41.63;97178.69;5011470;28;20043;-74
2021/05/16 10:11:17;;;;;;;2.10;1.63;;;;;;;23.51;42.81;97174.94;5025989;28;20091;-75
2021/05/16 10:13:58;;;;;;;1.90;0.70;;;;;;;21.53;48.91;97176.84;5007742;28;20017;-75
2021/05/16 10:16:24;;;;;;;2.22;0.47;;;;;;;21.62;48.37;97174.53;5005228;28;20037;-75
2021/05/16 10:18:51;;;;;;;2.88;0.70;;;;;;;21.66;47.29;97178.16;5007230;28;20014;-74
2021/05/16 10:21:17;;;;;;;2.83;0.95;;;;;;;20.75;49.92;97173.31;4989471;28;20140;-75
2021/05/16 10:23:43;;;;;;;1.30;0.73;;;;;;;20.71;51.53;97175.25;5006875;28;20104;-76
2021/05/16 10:26:14;;;;;;;0.95;0.60;;;;;;;20.06;55.88;97175.63;5010453;28;20025;-75
2021/05/16 10:29:00;;;;;;;5.30;1.02;;;;;;;19.36;58.95;97178.09;5017737;28;20049;-75
2021/05/16 10:31:43;;;;;;;1.42;0.90;;;;;;;18.64;63.70;97188.31;4999601;28;20033;-75
2021/05/16 10:34:30;;;;;;;2.50;1.10;;;;;;;18.29;63.30;97190.34;5022818;28;20506;-76
2021/05/16 10:37:01;;;;;;;1.38;0.85;;;;;;;18.15;65.61;97186.13;5017392;28;20025;-76
2021/05/16 10:39:41;;;;;;;1.02;0.47;;;;;;;18.34;63.24;97181.75;5011514;28;20056;-76
2021/05/16 10:42:15;;;;;;;2.00;0.88;;;;;;;18.85;61.03;97179.59;5011191;28;20053;-74
2021/05/16 10:44:57;;;;;;;1.13;0.82;;;;;;;19.65;61.12;97179.41;5021071;28;20057;-74
2021/05/16 10:47:40;;;;;;;3.22;0.77;;;;;;;20.13;58.75;97197.16;5018896;28;20022;-74
2021/05/16 10:50:07;;;;;;;5.15;0.80;;;;;;;19.93;59.42;97185.38;5016358;28;20729;-73
2021/05/16 10:52:33;;;;;;;1.08;0.68;;;;;;;20.36;57.19;97191.53;5018824;28;20372;-72
2021/05/16 10:54:59;;;;;;;1.75;0.50;;;;;;;20.21;56.42;97184.94;5012629;28;20033;-71
2021/05/16 10:57:34;;;;;;;2.00;0.85;;;;;;;20.34;56.84;97182.75;5010831;28;20029;-73
2021/05/16 11:00:20;;;;;;;1.45;0.75;;;;;;;21.01;54.83;97177.97;5017407;28;20029;-73
2021/05/16 11:03:09;;;;;;;1.52;0.85;;;;;;;20.54;55.54;97173.09;5012662;28;20379;-74
2021/05/16 11:05:44;;;;;;;1.35;1.00;;;;;;;20.92;55.37;97174.69;5030742;28;20029;-73
2021/05/16 11:08:11;;;;;;;1.70;0.77;;;;;;;20.96;53.31;97176.31;5027112;28;20508;-73
2021/05/16 11:10:38;;;;;;;1.92;0.50;;;;;;;20.41;54.08;97169.78;5001113;28;20029;-74
2021/05/16 11:13:32;;;;;;;1.65;0.82;;;;;;;20.68;53.43;97174.03;5020752;28;20483;-73
2021/05/16 11:16:06;;;;;;;3.10;0.93;;;;;;;21.45;52.44;97166.88;5018656;28;20109;-73
2021/05/16 11:18:32;;;;;;;1.45;0.85;;;;;;;21.55;52.97;97157.81;5019091;28;20029;-73
2021/05/16 11:21:08;;;;;;;1.17;0.68;;;;;;;19.85;56.42;97155.91;5019993;28;20083;-74
2021/05/16 11:23:38;;;;;;;1.27;0.55;;;;;;;19.84;57.51;97159.06;4998629;28;20124;-74
2021/05/16 11:26:05;;;;;;;3.88;1.00;;;;;;;19.76;58.74;97152.63;5001507;28;20053;-74
2021/05/16 11:28:35;;;;;;;6.50;2.70;;;;;;;20.41;56.96;97167.00;5003226;28;20037;-74
2021/05/16 11:31:08;;;;;;;5.05;1.77;;;;;;;19.68;57.31;97162.00;4998849;28;20029;-75
2021/05/16 11:33:36;;;;;;;3.42;1.08;;;;;;;19.87;56.58;97164.66;5017062;28;20169;-74